Startpagina
METAR-TAF:

METAR-TAF

Vliegvelden :

Flughafen Berlin-Tegel

Berlijn, Duitsland

breedte: 52-34N, lengte: 013-19E, hoogte: 37 m

Actueel weer

Dit bericht is 28 minuten geleden gemaakt, om 11:50 UTC
Wind 6 kt uit het oostzuidoosten
Temperatuur 10°C
Vochtigheid 82%
Druk 1011 hPa
Zicht 10 km of meer
Weinig wolken op 1300 ft
Verspreide wolken op 1900 ft

METAR: EDDT 221150Z 11006KT 9999 FEW013 SCT019 10/07 Q1011 TEMPO BKN011

Tijdstip: 13:18 (12:18 UTC)

Verwachting

Dit bericht is 1 uur en het 18 minuten geleden gemaakt, om 11:00 UTC
Verwachting geldig van 22 om 12 UTC tot 23 om 12 UTC
Wind 7 kt uit het oostzuidoosten
Zicht 10 km of meer
Gebroken wolken op 1500 ft
Wijzigt naar
van 22 om 18 UTC tot 22 om 22 UTC
Gebroken wolken op 1200 ft
Tijdelijke
van 23 om 02 UTC tot 23 om 09 UTC
Gebroken wolken op 800 ft
Wijzigt naar
van 23 om 09 UTC tot 23 om 12 UTC
Gebroken wolken op 1500 ft

TAF: EDDT 221100Z 2212/2312 11007KT 9999 BKN015 BECMG 2218/2222 BKN012 TEMPO 2302/2309 BKN008 BECMG 2309/2312 BKN015

Waarnemingen en weersverwachtingen van meer dan 4000 vliegvelden (METAR en TAF).

De beschikbare stations zijn de gele en rode punten op de kaart.

Ga met uw muis naar het station om de naam te zien.

Klik dan om waarnemingen en weersverwachtingen te zien.

kaart wijzigen: klik op de groene knoppen met een zwart kruis om in te zoomen, op de groene knop met een streepje om uit te zoomen of op de groene pijlen voor aangrenzende kaarten.


METAR-TAF: